Time;durP1;ratioP1;P1;durP2;ratioP2;P2;SDS_P1;SDS_P2;PMS_P1;PMS_P2;Temp;Humidity;BMP_temperature;BMP_pressure;BME280_temperature;BME280_humidity;BME280_pressure;Samples;Min_cycle;Max_cycle;Signal;HPM_P1;HPM_P2
2022/09/02 00:01:56;;;;;;;2.80;1.48;;;15.60;99.90;;;;;;4984847;28;20275;-85
2022/09/02 00:04:25;;;;;;;2.13;1.60;;;15.60;99.90;;;;;;4969589;28;20059;-86
2022/09/02 00:06:54;;;;;;;2.20;1.50;;;15.50;99.90;;;;;;5000556;28;20069;-85
2022/09/02 00:09:24;;;;;;;2.65;1.48;;;15.40;99.90;;;;;;4975816;28;20048;-85
2022/09/02 00:11:52;;;;;;;2.65;1.42;;;15.50;99.90;;;;;;4986761;28;20045;-85
2022/09/02 00:14:27;;;;;;;2.42;1.42;;;14.90;99.90;;;;;;4986729;28;20058;-86
2022/09/02 00:16:53;;;;;;;2.47;1.63;;;15.40;99.90;;;;;;4991496;28;20041;-85
2022/09/02 00:19:21;;;;;;;2.00;1.30;;;15.40;99.90;;;;;;4986253;28;20131;-86
2022/09/02 00:21:48;;;;;;;3.15;1.50;;;15.00;99.90;;;;;;4976449;28;20644;-86
2022/09/02 00:24:14;;;;;;;2.30;1.48;;;15.40;99.90;;;;;;4986369;28;20104;-85
2022/09/02 00:26:39;;;;;;;4.05;1.92;;;15.40;99.90;;;;;;4985643;28;20514;-84
2022/09/02 00:29:05;;;;;;;2.17;1.50;;;15.30;99.90;;;;;;4985278;28;20077;-86
2022/09/02 00:31:35;;;;;;;2.40;1.58;;;14.90;99.90;;;;;;4970534;28;20391;-86
2022/09/02 00:34:03;;;;;;;3.13;1.45;;;15.30;99.90;;;;;;4986055;28;20108;-85
2022/09/02 00:36:31;;;;;;;3.67;1.52;;;15.20;99.90;;;;;;4985479;28;20597;-85
2022/09/02 00:38:57;;;;;;;1.88;1.30;;;15.20;99.90;;;;;;4953848;28;20046;-84
2022/09/02 00:41:25;;;;;;;2.38;1.50;;;15.10;99.90;;;;;;4985489;28;20062;-84
2022/09/02 00:43:55;;;;;;;2.55;1.48;;;14.50;99.90;;;;;;4993065;28;20046;-86
2022/09/02 00:46:26;;;;;;;1.88;1.40;;;15.00;99.90;;;;;;4986961;28;20046;-87
2022/09/02 00:48:57;;;;;;;5.47;1.40;;;15.00;99.90;;;;;;4975756;28;20168;-85
2022/09/02 00:51:25;;;;;;;2.30;1.63;;;15.00;99.90;;;;;;4991777;28;20057;-84
2022/09/02 00:53:51;;;;;;;2.42;1.30;;;15.00;99.90;;;;;;4986889;28;20046;-85
2022/09/02 00:56:25;;;;;;;2.20;1.42;;;14.90;99.90;;;;;;4969561;28;20506;-86
2022/09/02 00:59:01;;;;;;;3.00;1.50;;;14.90;99.90;;;;;;4969408;28;20119;-85
2022/09/02 01:01:27;;;;;;;3.35;1.38;;;14.90;99.90;;;;;;4985585;28;20054;-86
2022/09/02 01:03:53;;;;;;;3.53;1.40;;;14.80;99.90;;;;;;4983106;28;20065;-85
2022/09/02 01:06:23;;;;;;;2.30;1.67;;;14.80;99.90;;;;;;4969569;28;20066;-87
2022/09/02 01:08:58;;;;;;;3.42;1.50;;;14.80;99.90;;;;;;4985510;28;20132;-86
2022/09/02 01:11:36;;;;;;;2.03;1.60;;;14.70;99.90;;;;;;5001207;28;20491;-86
2022/09/02 01:14:06;;;;;;;2.03;1.30;;;14.70;99.90;;;;;;4983646;28;20057;-85
2022/09/02 01:16:39;;;;;;;2.00;1.40;;;14.70;99.90;;;;;;4975032;28;20381;-85
2022/09/02 01:19:12;;;;;;;2.00;1.40;;;14.70;99.90;;;;;;4968714;28;20046;-86
2022/09/02 01:21:44;;;;;;;3.15;1.40;;;14.60;99.90;;;;;;5000348;28;20065;-85
2022/09/02 01:24:12;;;;;;;2.25;1.48;;;14.60;99.90;;;;;;4976614;28;20061;-86
2022/09/02 01:26:38;;;;;;;2.78;1.60;;;14.60;99.90;;;;;;5001578;28;20492;-86
2022/09/02 01:29:03;;;;;;;3.30;1.63;;;14.50;99.90;;;;;;4999901;28;20111;-85
2022/09/02 01:31:29;;;;;;;2.65;1.40;;;14.50;99.90;;;;;;4983470;28;20531;-86
2022/09/02 01:33:56;;;;;;;4.07;1.52;;;14.50;99.90;;;;;;4985461;28;20052;-86
2022/09/02 01:36:22;;;;;;;4.72;1.40;;;14.50;99.90;;;;;;4984549;28;20057;-85
2022/09/02 01:38:48;;;;;;;2.80;1.50;;;14.40;99.90;;;;;;4973414;28;20526;-85
2022/09/02 01:41:14;;;;;;;2.10;1.30;;;14.40;99.90;;;;;;4951002;28;20105;-85
2022/09/02 01:43:40;;;;;;;2.60;1.40;;;14.40;99.90;;;;;;4976164;28;20432;-86
2022/09/02 01:46:05;;;;;;;2.97;1.52;;;14.40;99.90;;;;;;4951647;28;20043;-85
2022/09/02 01:48:31;;;;;;;3.83;1.40;;;14.30;99.90;;;;;;4968635;28;20165;-86
2022/09/02 01:51:02;;;;;;;2.38;1.20;;;14.30;99.90;;;;;;4998711;28;20095;-86
2022/09/02 01:53:29;;;;;;;2.47;1.23;;;14.30;99.90;;;;;;4975897;28;20058;-85
2022/09/02 01:55:55;;;;;;;2.38;1.15;;;14.30;99.90;;;;;;4975107;28;20065;-85
2022/09/02 01:58:21;;;;;;;2.20;1.50;;;14.30;99.90;;;;;;4984230;28;20487;-85
2022/09/02 02:00:47;;;;;;;3.13;1.48;;;14.80;99.90;;;;;;4983224;28;20042;-86
2022/09/02 02:03:13;;;;;;;2.65;1.38;;;14.30;99.90;;;;;;4983182;28;20546;-86
2022/09/02 02:05:39;;;;;;;2.50;1.30;;;14.20;99.90;;;;;;4982462;28;20539;-86
2022/09/02 02:08:05;;;;;;;1.65;1.25;;;14.20;99.90;;;;;;4982849;28;20603;-87
2022/09/02 02:10:32;;;;;;;2.08;1.23;;;14.30;99.90;;;;;;4982639;28;20049;-85
2022/09/02 02:13:00;;;;;;;2.45;1.40;;;14.20;99.90;;;;;;4982491;28;20100;-86
2022/09/02 02:15:26;;;;;;;2.67;1.50;;;14.10;99.90;;;;;;4969092;28;20453;-86
2022/09/02 02:17:54;;;;;;;3.28;1.20;;;13.70;99.90;;;;;;4991504;28;20133;-85
2022/09/02 02:20:20;;;;;;;1.77;1.05;;;14.10;99.90;;;;;;4959765;28;20098;-86
2022/09/02 02:22:47;;;;;;;5.40;1.30;;;14.10;99.90;;;;;;4981505;28;20045;-85
2022/09/02 02:25:14;;;;;;;2.35;1.15;;;14.00;99.90;;;;;;4982985;28;20074;-85
2022/09/02 02:27:40;;;;;;;2.10;1.13;;;14.00;99.90;;;;;;4982936;28;20058;-86
2022/09/02 02:30:09;;;;;;;2.35;1.50;;;14.00;99.90;;;;;;4974491;28;20038;-85
2022/09/02 02:32:35;;;;;;;1.77;1.15;;;12.90;99.90;;;;;;4989678;28;20524;-85
2022/09/02 02:35:03;;;;;;;1.35;1.00;;;14.00;99.90;;;;;;4984993;28;20061;-85
2022/09/02 02:37:29;;;;;;;2.40;1.23;;;13.90;99.90;;;;;;4990684;28;20086;-85
2022/09/02 02:39:55;;;;;;;2.55;1.52;;;13.90;99.90;;;;;;4990600;28;20090;-84
2022/09/02 02:42:21;;;;;;;1.80;1.20;;;13.80;99.90;;;;;;4974086;28;20038;-85
2022/09/02 02:44:47;;;;;;;4.50;1.60;;;13.80;99.90;;;;;;4981930;28;20054;-85
2022/09/02 02:47:13;;;;;;;2.42;1.42;;;13.80;99.90;;;;;;4981566;28;20046;-85
2022/09/02 02:49:45;;;;;;;2.42;1.23;;;13.80;99.90;;;;;;4950680;28;20132;-84
2022/09/02 02:52:13;;;;;;;2.80;1.57;;;13.80;99.90;;;;;;4974816;28;20133;-86
2022/09/02 02:54:40;;;;;;;2.25;1.30;;;13.70;99.90;;;;;;4983003;28;20584;-84
2022/09/02 02:57:07;;;;;;;2.53;1.38;;;13.70;99.90;;;;;;4982029;28;20566;-86
2022/09/02 02:59:33;;;;;;;2.40;1.33;;;13.70;99.90;;;;;;4982208;28;20104;-84
2022/09/02 03:01:59;;;;;;;2.08;1.10;;;13.70;99.90;;;;;;4981234;28;20111;-85
2022/09/02 03:04:25;;;;;;;2.00;1.40;;;13.70;99.90;;;;;;4966149;28;20059;-85
2022/09/02 03:06:51;;;;;;;2.00;1.35;;;13.70;99.90;;;;;;4962414;28;20058;-85
2022/09/02 03:09:19;;;;;;;2.78;1.50;;;13.60;99.90;;;;;;4971238;28;20046;-85
2022/09/02 03:11:45;;;;;;;4.00;1.20;;;13.70;99.90;;;;;;4987097;28;20050;-85
2022/09/02 03:14:11;;;;;;;2.85;1.45;;;13.60;99.90;;;;;;4970125;28;20055;-85
2022/09/02 03:16:37;;;;;;;3.28;1.50;;;13.60;99.90;;;;;;4947926;28;20046;-85
2022/09/02 03:19:03;;;;;;;1.83;1.23;;;13.60;99.90;;;;;;4978128;28;20089;-84
2022/09/02 03:21:29;;;;;;;2.67;1.55;;;13.60;99.90;;;;;;4971196;28;20069;-85
2022/09/02 03:23:55;;;;;;;2.13;1.48;;;13.60;99.90;;;;;;4979889;28;20054;-86
2022/09/02 03:26:23;;;;;;;2.03;1.52;;;13.50;99.90;;;;;;4964041;28;20396;-85
2022/09/02 03:28:50;;;;;;;1.80;1.40;;;13.50;99.90;;;;;;4962988;28;20058;-84
2022/09/02 03:31:24;;;;;;;2.03;1.48;;;13.50;99.90;;;;;;4979086;28;20121;-85
2022/09/02 03:33:50;;;;;;;2.30;1.30;;;13.50;99.90;;;;;;4996019;28;20061;-85
2022/09/02 03:36:27;;;;;;;1.95;1.20;;;13.50;99.90;;;;;;4969853;28;20050;-85
2022/09/02 03:38:54;;;;;;;2.53;1.40;;;13.50;99.90;;;;;;4962560;28;20046;-85
2022/09/02 03:41:20;;;;;;;3.13;1.63;;;13.40;99.90;;;;;;4978782;28;20129;-85
2022/09/02 03:43:46;;;;;;;2.65;1.38;;;13.40;99.90;;;;;;4947186;28;20047;-85
2022/09/02 03:46:12;;;;;;;2.28;1.70;;;13.40;99.90;;;;;;4979431;28;20452;-84
2022/09/02 03:48:39;;;;;;;2.03;1.25;;;13.30;99.90;;;;;;4962449;28;20054;-85
2022/09/02 03:51:06;;;;;;;1.90;1.40;;;13.00;99.90;;;;;;4962467;28;20085;-85
2022/09/02 03:53:32;;;;;;;3.75;1.77;;;13.30;99.90;;;;;;4978064;28;20138;-85
2022/09/02 03:56:11;;;;;;;1.73;1.30;;;13.30;99.90;;;;;;4964433;28;20467;-85
2022/09/02 03:58:38;;;;;;;2.78;1.63;;;13.20;99.90;;;;;;4980123;28;20051;-85
2022/09/02 04:01:04;;;;;;;2.45;1.45;;;13.20;99.90;;;;;;4986115;28;20053;-86
2022/09/02 04:03:30;;;;;;;3.13;1.33;;;13.20;99.90;;;;;;4977582;28;20100;-86
2022/09/02 04:05:56;;;;;;;2.50;1.40;;;13.10;99.90;;;;;;4968896;28;20062;-85
2022/09/02 04:08:22;;;;;;;3.15;1.63;;;13.10;99.90;;;;;;4962307;28;20594;-86
2022/09/02 04:10:49;;;;;;;2.30;1.40;;;12.70;99.90;;;;;;4977275;28;20042;-86
2022/09/02 04:13:15;;;;;;;2.90;1.40;;;13.00;99.90;;;;;;4978691;28;20035;-85
2022/09/02 04:15:43;;;;;;;2.70;1.30;;;13.10;99.90;;;;;;4979026;28;20058;-86
2022/09/02 04:18:10;;;;;;;2.33;1.27;;;11.80;99.90;;;;;;4978977;28;20078;-85
2022/09/02 04:20:41;;;;;;;3.00;1.52;;;13.00;99.90;;;;;;4976823;28;20077;-86
2022/09/02 04:23:07;;;;;;;3.30;1.70;;;13.00;99.90;;;;;;4961476;28;20057;-85
2022/09/02 04:25:37;;;;;;;4.80;1.50;;;13.30;99.90;;;;;;4980547;28;20054;-84
2022/09/02 04:28:03;;;;;;;3.78;1.40;;;13.00;99.90;;;;;;4981476;28;20396;-86
2022/09/02 04:30:28;;;;;;;1.80;1.45;;;12.90;99.90;;;;;;4981939;28;20594;-84
2022/09/02 04:32:54;;;;;;;2.67;1.70;;;13.00;99.90;;;;;;4980943;28;20057;-85
2022/09/02 04:35:20;;;;;;;2.63;1.50;;;12.90;99.90;;;;;;4973593;28;20046;-85
2022/09/02 04:37:47;;;;;;;1.77;1.40;;;12.90;99.90;;;;;;4980228;28;20089;-85
2022/09/02 04:40:14;;;;;;;4.72;1.70;;;12.80;99.90;;;;;;4949133;28;20042;-85
2022/09/02 04:42:40;;;;;;;2.65;1.50;;;12.90;99.90;;;;;;4981668;28;20574;-85
2022/09/02 04:45:06;;;;;;;1.90;1.33;;;12.80;99.90;;;;;;4972609;28;20047;-85
2022/09/02 04:47:43;;;;;;;;;;;;;;;;;;;;;
2022/09/02 04:50:11;;;;;;;2.80;1.50;;;12.20;99.90;;;;;;5001517;28;20539;-88
2022/09/02 04:52:37;;;;;;;2.78;1.50;;;12.80;99.90;;;;;;4990460;28;20051;-85
2022/09/02 04:55:06;;;;;;;2.85;1.50;;;12.80;99.90;;;;;;4981529;28;20567;-86
2022/09/02 04:57:32;;;;;;;2.42;1.55;;;12.80;99.90;;;;;;4972481;28;20554;-86
2022/09/02 05:00:00;;;;;;;2.20;1.40;;;12.90;99.90;;;;;;4980425;28;20052;-85
2022/09/02 05:02:34;;;;;;;4.15;1.92;;;12.80;99.90;;;;;;4981941;28;20488;-85
2022/09/02 05:04:59;;;;;;;2.30;1.65;;;12.90;99.90;;;;;;4957357;28;20046;-87
2022/09/02 05:07:27;;;;;;;2.25;1.48;;;12.90;99.90;;;;;;4984428;28;20062;-84
2022/09/02 05:09:57;;;;;;;1.88;1.38;;;12.80;99.90;;;;;;4981849;28;20077;-84
2022/09/02 05:12:24;;;;;;;3.00;1.58;;;12.80;99.90;;;;;;5001142;28;20046;-85
2022/09/02 05:14:50;;;;;;;2.13;1.60;;;12.80;99.90;;;;;;4980559;28;20138;-85
2022/09/02 05:17:19;;;;;;;3.70;1.70;;;12.80;99.90;;;;;;4982471;28;20113;-83
2022/09/02 05:19:47;;;;;;;2.22;1.30;;;12.80;99.90;;;;;;4968628;28;20083;-84
2022/09/02 05:22:13;;;;;;;2.40;1.60;;;12.80;99.90;;;;;;4983830;28;20054;-87
2022/09/02 05:24:41;;;;;;;5.45;1.67;;;12.90;99.90;;;;;;4983701;28;20051;-84
2022/09/02 05:27:08;;;;;;;5.47;1.58;;;12.80;99.90;;;;;;4981465;28;20054;-84
2022/09/02 05:29:47;;;;;;;2.50;1.17;;;12.90;99.90;;;;;;4981528;28;20046;-87
2022/09/02 05:32:22;;;;;;;3.05;1.73;;;12.80;99.90;;;;;;4976627;28;20050;-86
2022/09/02 05:35:04;;;;;;;2.72;1.50;;;12.90;99.90;;;;;;4983089;28;20050;-87
2022/09/02 05:37:32;;;;;;;2.50;1.55;;;12.90;99.90;;;;;;4959421;28;20133;-86
2022/09/02 05:39:58;;;;;;;2.53;1.70;;;12.90;99.90;;;;;;4990821;28;20121;-85
2022/09/02 05:42:27;;;;;;;2.50;1.40;;;13.10;99.90;;;;;;4981744;28;20046;-85
2022/09/02 05:44:53;;;;;;;2.22;1.67;;;13.10;99.90;;;;;;4981967;28;20181;-85
2022/09/02 05:47:21;;;;;;;2.40;1.50;;;13.00;99.90;;;;;;4980638;28;20463;-86
2022/09/02 05:49:52;;;;;;;2.80;1.50;;;13.00;99.90;;;;;;4984045;28;20790;-85
2022/09/02 05:52:18;;;;;;;3.88;1.50;;;12.20;99.90;;;;;;4987397;28;20392;-84
2022/09/02 05:54:46;;;;;;;2.70;1.90;;;13.20;99.90;;;;;;4980624;28;20046;-85
2022/09/02 05:57:17;;;;;;;2.30;1.80;;;13.20;99.90;;;;;;4982098;28;20500;-84
2022/09/02 05:59:43;;;;;;;3.72;1.70;;;13.20;99.90;;;;;;4983225;28;20046;-84
2022/09/02 06:02:12;;;;;;;3.40;1.50;;;13.20;99.90;;;;;;4979671;28;20062;-82
2022/09/02 06:04:43;;;;;;;3.45;1.67;;;13.20;99.90;;;;;;4986130;28;20047;-82
2022/09/02 06:07:09;;;;;;;3.05;1.50;;;13.30;99.90;;;;;;4979032;28;20066;-84
2022/09/02 06:09:47;;;;;;;3.85;1.50;;;13.30;99.90;;;;;;4971968;28;20043;-88
2022/09/02 06:12:19;;;;;;;5.97;1.35;;;13.30;99.90;;;;;;4963212;28;20142;-88
2022/09/02 06:14:48;;;;;;;2.53;1.67;;;13.40;99.90;;;;;;4982103;28;20050;-86
2022/09/02 06:17:27;;;;;;;3.40;1.80;;;13.50;99.90;;;;;;4983333;28;20095;-87
2022/09/02 06:19:55;;;;;;;3.08;1.60;;;13.50;99.90;;;;;;4974862;28;20050;-87
2022/09/02 06:22:33;;;;;;;3.55;2.13;;;13.70;99.90;;;;;;4983887;28;20034;-86
2022/09/02 06:25:11;;;;;;;2.55;1.60;;;12.90;99.90;;;;;;4967275;28;20066;-86
2022/09/02 06:27:40;;;;;;;2.85;1.50;;;13.80;99.90;;;;;;4986417;28;20089;-88
2022/09/02 06:30:06;;;;;;;2.10;1.42;;;14.00;99.90;;;;;;4968772;28;20042;-86
2022/09/02 06:32:32;;;;;;;3.28;1.58;;;13.80;99.90;;;;;;4984605;28;20050;-86
2022/09/02 06:35:07;;;;;;;2.13;1.33;;;14.00;99.90;;;;;;4953190;28;20069;-87
2022/09/02 06:37:36;;;;;;;2.42;1.70;;;14.00;99.90;;;;;;4982487;28;20134;-87
2022/09/02 06:40:18;;;;;;;3.40;1.90;;;14.20;99.90;;;;;;4970783;28;20065;-87
2022/09/02 06:42:48;;;;;;;3.58;1.60;;;14.20;99.90;;;;;;5001236;28;20074;-86
2022/09/02 06:45:23;;;;;;;3.38;1.70;;;14.20;99.90;;;;;;4965732;28;20050;-85
2022/09/02 06:47:49;;;;;;;2.23;1.50;;;14.40;99.90;;;;;;4978564;28;20101;-86
2022/09/02 06:50:23;;;;;;;2.17;1.67;;;14.40;99.90;;;;;;4979963;28;20480;-86
2022/09/02 06:52:49;;;;;;;2.75;1.65;;;14.60;99.90;;;;;;4967430;28;20054;-86
2022/09/02 06:55:16;;;;;;;2.05;1.48;;;14.30;99.90;;;;;;4978895;28;20039;-85
2022/09/02 06:57:47;;;;;;;2.50;1.50;;;14.30;99.90;;;;;;4979622;28;20070;-87
2022/09/02 07:00:16;;;;;;;3.00;1.83;;;14.80;99.90;;;;;;4968524;28;20050;-86
2022/09/02 07:02:42;;;;;;;3.75;1.67;;;15.20;99.90;;;;;;4978836;28;20065;-85
2022/09/02 07:05:14;;;;;;;2.13;1.42;;;15.30;99.90;;;;;;4979852;28;20058;-85
2022/09/02 07:07:44;;;;;;;3.40;1.50;;;14.50;99.90;;;;;;4959679;28;20424;-85
2022/09/02 07:10:14;;;;;;;3.63;1.55;;;15.70;99.90;;;;;;4983835;28;20513;-86
2022/09/02 07:12:40;;;;;;;3.22;1.55;;;15.00;99.90;;;;;;4982084;28;20054;-84
2022/09/02 07:15:09;;;;;;;2.47;1.40;;;16.10;99.90;;;;;;4970769;28;20073;-85
2022/09/02 07:17:37;;;;;;;1.80;1.25;;;16.30;99.90;;;;;;4980864;28;20125;-84
2022/09/02 07:20:06;;;;;;;2.88;1.20;;;16.40;99.90;;;;;;4981618;28;20061;-85
2022/09/02 07:22:32;;;;;;;2.88;1.60;;;16.70;99.90;;;;;;4967745;28;20046;-85
2022/09/02 07:24:59;;;;;;;2.95;1.48;;;16.80;99.90;;;;;;4971210;28;20049;-86
2022/09/02 07:27:34;;;;;;;3.15;1.30;;;17.00;99.90;;;;;;4982090;28;20550;-85
2022/09/02 07:29:59;;;;;;;3.80;1.40;;;16.80;99.90;;;;;;4982066;28;20058;-83
2022/09/02 07:32:27;;;;;;;2.28;1.40;;;17.50;99.90;;;;;;4962095;28;20043;-85
2022/09/02 07:34:53;;;;;;;3.75;1.52;;;17.60;99.90;;;;;;4968105;28;20043;-82
2022/09/02 07:37:19;;;;;;;2.30;1.30;;;17.90;99.90;;;;;;4964773;28;20054;-84
2022/09/02 07:39:45;;;;;;;2.33;1.30;;;18.10;99.90;;;;;;4949108;28;20370;-82
2022/09/02 07:42:11;;;;;;;3.63;1.55;;;18.30;99.90;;;;;;4978155;28;20054;-83
2022/09/02 07:44:37;;;;;;;1.95;1.40;;;18.40;99.90;;;;;;4977352;28;20390;-82
2022/09/02 07:47:05;;;;;;;2.08;1.15;;;18.50;99.90;;;;;;4960261;28;20050;-84
2022/09/02 07:49:31;;;;;;;4.03;1.23;;;18.70;99.90;;;;;;4979661;28;20109;-84
2022/09/02 07:51:57;;;;;;;2.92;1.10;;;18.90;99.90;;;;;;4977466;28;20447;-84
2022/09/02 07:54:27;;;;;;;3.00;1.40;;;19.10;99.90;;;;;;4971785;28;20126;-84
2022/09/02 07:56:54;;;;;;;2.42;1.23;;;18.20;99.90;;;;;;4979839;28;20059;-83
2022/09/02 07:59:26;;;;;;;2.53;1.10;;;18.70;99.90;;;;;;4983652;28;20125;-84
2022/09/02 08:01:52;;;;;;;2.42;1.30;;;19.60;99.90;;;;;;4997827;28;20049;-82
2022/09/02 08:04:22;;;;;;;1.90;1.23;;;19.70;99.90;;;;;;4978637;28;20093;-83
2022/09/02 08:06:51;;;;;;;4.28;1.10;;;20.00;99.90;;;;;;5000756;28;20093;-84
2022/09/02 08:09:18;;;;;;;8.15;1.80;;;20.10;99.90;;;;;;4983216;28;20122;-82
2022/09/02 08:11:46;;;;;;;5.40;1.08;;;20.40;99.90;;;;;;4984029;28;20062;-83
2022/09/02 08:14:16;;;;;;;2.13;1.10;;;20.50;99.90;;;;;;4987168;28;20042;-83
2022/09/02 08:16:44;;;;;;;2.67;1.20;;;20.70;99.90;;;;;;4985934;28;20415;-82
2022/09/02 08:19:10;;;;;;;3.65;1.23;;;20.80;99.90;;;;;;4986201;28;20460;-82
2022/09/02 08:21:36;;;;;;;2.22;1.05;;;20.80;99.90;;;;;;4984194;28;20051;-82
2022/09/02 08:24:02;;;;;;;2.72;1.17;;;21.00;99.90;;;;;;4983712;28;20383;-82
2022/09/02 08:26:28;;;;;;;6.15;1.27;;;21.10;99.90;;;;;;4979852;28;20054;-81
2022/09/02 08:28:55;;;;;;;2.72;1.50;;;20.70;99.90;;;;;;4980727;28;20138;-82
2022/09/02 08:31:21;;;;;;;5.05;1.30;;;21.30;99.90;;;;;;4956157;28;20404;-81
2022/09/02 08:33:46;;;;;;;1.40;1.00;;;21.30;99.90;;;;;;4974134;28;20057;-83
2022/09/02 08:36:14;;;;;;;4.90;1.20;;;21.10;99.90;;;;;;4987890;28;20054;-83
2022/09/02 08:38:43;;;;;;;2.70;1.20;;;21.50;99.90;;;;;;4985707;28;20062;-82
2022/09/02 08:41:30;;;;;;;3.95;1.30;;;21.60;99.90;;;;;;4984193;28;20134;-83
2022/09/02 08:44:03;;;;;;;36.80;3.95;;;21.70;99.80;;;;;;4966204;28;20050;-83
2022/09/02 08:46:32;;;;;;;17.05;2.40;;;22.00;99.80;;;;;;4973472;28;20056;-83
2022/09/02 08:49:03;;;;;;;6.55;1.77;;;22.00;99.40;;;;;;4982675;28;20419;-84
2022/09/02 08:51:50;;;;;;;12.25;1.65;;;22.10;99.00;;;;;;4983488;28;20370;-83
2022/09/02 08:54:43;;;;;;;3.58;1.20;;;22.30;98.60;;;;;;5001608;28;20057;-83
2022/09/02 08:57:10;;;;;;;3.95;1.10;;;22.60;98.20;;;;;;4984193;28;20054;-85
2022/09/02 08:59:37;;;;;;;2.75;1.10;;;22.80;98.50;;;;;;4991717;28;20065;-84
2022/09/02 09:02:28;;;;;;;2.65;1.10;;;23.00;98.10;;;;;;4983247;28;20057;-83
2022/09/02 09:05:15;;;;;;;2.90;1.20;;;23.20;97.30;;;;;;4972743;28;20076;-83
2022/09/02 09:08:01;;;;;;;2.78;1.08;;;23.40;96.60;;;;;;4981025;28;20093;-83
2022/09/02 09:10:55;;;;;;;1.67;1.00;;;23.60;95.40;;;;;;4971554;28;20057;-83
2022/09/02 09:13:53;;;;;;;6.43;1.30;;;23.60;94.90;;;;;;4981446;28;20649;-83
2022/09/02 09:16:40;;;;;;;3.25;1.02;;;23.80;94.60;;;;;;4978185;28;20089;-83
2022/09/02 09:19:24;;;;;;;1.42;0.82;;;24.10;94.50;;;;;;4985719;28;20404;-83
2022/09/02 09:21:54;;;;;;;2.70;0.98;;;24.20;94.40;;;;;;4980846;28;20046;-85
2022/09/02 09:24:38;;;;;;;2.58;0.90;;;24.40;94.40;;;;;;4966030;28;20515;-83
2022/09/02 09:27:10;;;;;;;2.10;0.90;;;24.40;92.60;;;;;;4984642;28;20129;-82
2022/09/02 09:29:35;;;;;;;2.78;0.80;;;24.50;93.60;;;;;;4980932;28;20050;-83
2022/09/02 09:32:03;;;;;;;1.27;0.77;;;24.60;93.20;;;;;;4970915;28;20050;-83
2022/09/02 09:34:50;;;;;;;2.55;1.13;;;24.70;93.00;;;;;;4980449;28;20405;-83
2022/09/02 09:37:28;;;;;;;2.75;0.77;;;24.70;91.90;;;;;;4982851;28;20117;-82
2022/09/02 09:39:54;;;;;;;1.60;0.73;;;25.00;90.60;;;;;;4982783;28;20100;-83
2022/09/02 09:42:31;;;;;;;3.45;1.00;;;25.20;92.00;;;;;;4952433;28;20082;-83
2022/09/02 09:44:57;;;;;;;1.00;0.70;;;25.20;90.70;;;;;;4970527;28;20093;-82
2022/09/02 09:47:25;;;;;;;3.25;1.30;;;25.40;90.90;;;;;;4968958;28;20488;-85
2022/09/02 09:50:15;;;;;;;1.15;0.70;;;25.50;90.50;;;;;;4988872;28;20047;-83
2022/09/02 09:52:41;;;;;;;2.08;0.70;;;25.60;88.30;;;;;;4982152;28;20046;-84
2022/09/02 09:55:29;;;;;;;1.35;0.82;;;25.60;89.00;;;;;;4962188;28;20054;-82
2022/09/02 09:58:07;;;;;;;3.85;0.80;;;25.70;86.70;;;;;;4963630;28;20093;-83
2022/09/02 10:00:33;;;;;;;3.50;1.08;;;25.70;84.50;;;;;;4984752;28;20563;-83
2022/09/02 10:03:03;;;;;;;1.75;0.60;;;25.80;85.10;;;;;;4948337;28;20132;-83
2022/09/02 10:05:33;;;;;;;2.97;0.93;;;26.00;84.10;;;;;;4979800;28;20047;-82
2022/09/02 10:08:20;;;;;;;4.32;0.70;;;26.20;82.60;;;;;;4979373;28;20150;-84
2022/09/02 10:11:23;;;;;;;2.08;0.80;;;26.30;79.90;;;;;;4987716;28;20093;-81
2022/09/02 10:13:49;;;;;;;0.80;0.52;;;26.40;79.00;;;;;;4980246;28;20121;-81
2022/09/02 10:16:36;;;;;;;2.83;0.80;;;26.60;80.50;;;;;;4947663;28;20050;-84
2022/09/02 10:19:10;;;;;;;3.42;0.65;;;26.70;77.60;;;;;;4979203;28;20076;-83
2022/09/02 10:22:21;;;;;;;2.00;0.70;;;27.00;78.90;;;;;;4978261;28;20054;-80
2022/09/02 10:25:06;;;;;;;1.38;0.68;;;27.20;76.20;;;;;;4934453;28;20059;-81
2022/09/02 10:27:38;;;;;;;2.33;0.50;;;27.10;75.10;;;;;;4970969;28;20072;-84
2022/09/02 10:30:18;;;;;;;2.50;0.80;;;27.10;74.30;;;;;;4971449;28;20042;-86
2022/09/02 10:33:25;;;;;;;1.13;0.50;;;27.10;75.40;;;;;;4980106;28;20046;-86
2022/09/02 10:35:59;;;;;;;1.98;0.52;;;27.30;73.00;;;;;;4979924;28;20050;-88
2022/09/02 10:38:45;;;;;;;2.90;0.90;;;27.40;70.90;;;;;;4964639;28;20050;-85
2022/09/02 10:41:22;;;;;;;1.10;0.47;;;27.50;73.60;;;;;;4983705;28;20181;-85
2022/09/02 10:44:06;;;;;;;1.48;0.68;;;27.70;72.90;;;;;;4966907;28;20050;-86
2022/09/02 10:47:00;;;;;;;1.30;0.60;;;27.90;72.10;;;;;;4987455;28;20043;-88
2022/09/02 10:49:42;;;;;;;4.00;1.10;;;27.90;68.60;;;;;;4936652;28;20105;-86
2022/09/02 10:52:42;;;;;;;6.55;1.50;;;27.90;68.30;;;;;;4981009;28;20046;-84
2022/09/02 10:55:31;;;;;;;1.58;0.60;;;27.70;66.60;;;;;;4971940;28;20050;-84
2022/09/02 10:58:19;;;;;;;3.00;0.80;;;27.60;66.40;;;;;;4983949;28;20058;-84
2022/09/02 11:00:50;;;;;;;1.63;0.68;;;27.40;67.90;;;;;;4978416;28;20104;-84
2022/09/02 11:03:25;;;;;;;2.20;0.70;;;27.60;69.10;;;;;;4983081;28;20057;-83
2022/09/02 11:05:58;;;;;;;2.90;0.80;;;27.50;67.90;;;;;;4967073;28;20126;-83
2022/09/02 11:08:31;;;;;;;1.30;0.70;;;27.60;68.00;;;;;;4959355;28;20113;-83
2022/09/02 11:11:28;;;;;;;3.05;0.80;;;27.40;66.60;;;;;;4974604;28;20042;-82
2022/09/02 11:14:26;;;;;;;1.30;0.47;;;26.80;63.30;;;;;;4964582;28;20050;-82
2022/09/02 11:17:18;;;;;;;1.10;0.50;;;27.30;64.60;;;;;;4994529;28;20126;-82
2022/09/02 11:20:04;;;;;;;1.10;0.68;;;27.50;64.40;;;;;;4978276;28;20045;-83
2022/09/02 11:22:38;;;;;;;2.70;0.80;;;27.70;63.20;;;;;;4993494;28;20057;-84
2022/09/02 11:25:46;;;;;;;1.70;0.50;;;27.90;64.30;;;;;;4966383;28;20101;-85
2022/09/02 11:28:43;;;;;;;1.67;0.70;;;28.40;65.20;;;;;;4958446;28;20054;-87
2022/09/02 11:31:23;;;;;;;2.65;0.60;;;28.70;63.90;;;;;;4978369;28;20258;-85
2022/09/02 11:33:58;;;;;;;2.92;0.70;;;28.80;63.20;;;;;;4981538;28;20053;-86
2022/09/02 11:36:26;;;;;;;1.63;0.60;;;29.20;62.20;;;;;;4982763;28;20042;-84
2022/09/02 11:39:47;;;;;;;1.55;0.80;;;29.10;61.70;;;;;;4979860;28;20133;-85
2022/09/02 11:42:47;;;;;;;2.42;0.70;;;29.30;60.50;;;;;;4967105;28;20068;-85
2022/09/02 11:45:22;;;;;;;3.83;0.70;;;29.60;59.50;;;;;;4979385;28;20500;-85
2022/09/02 11:48:06;;;;;;;1.90;0.60;;;29.80;60.40;;;;;;4963951;28;20070;-85
2022/09/02 11:50:41;;;;;;;2.95;0.57;;;30.10;60.10;;;;;;4981906;28;20054;-83
2022/09/02 11:53:28;;;;;;;5.38;0.77;;;29.80;58.80;;;;;;4980039;28;20065;-84
2022/09/02 11:56:10;;;;;;;2.08;0.50;;;29.80;57.50;;;;;;4980317;28;20051;-84
2022/09/02 11:58:48;;;;;;;3.72;0.60;;;29.60;58.80;;;;;;4979368;28;20047;-85
2022/09/02 12:01:31;;;;;;;1.20;0.60;;;29.60;57.60;;;;;;4979080;28;20603;-86
2022/09/02 12:04:05;;;;;;;2.75;0.60;;;30.00;60.00;;;;;;4982928;28;20062;-87
2022/09/02 12:06:32;;;;;;;1.77;0.63;;;29.50;59.30;;;;;;4982073;28;20073;-84
2022/09/02 12:09:02;;;;;;;2.17;0.77;;;29.50;58.90;;;;;;4983880;28;20049;-84
2022/09/02 12:11:31;;;;;;;1.27;0.60;;;29.60;58.60;;;;;;4982690;28;20081;-83
2022/09/02 12:13:57;;;;;;;2.95;0.60;;;29.70;58.80;;;;;;4976437;28;20041;-85
2022/09/02 12:16:43;;;;;;;1.73;0.55;;;29.80;59.00;;;;;;4983796;28;20045;-87
2022/09/02 12:19:09;;;;;;;;;;;29.90;57.10;;;;;;4976756;28;20042;-88
2022/09/02 12:22:16;;;;;;;1.60;0.50;;;30.00;57.20;;;;;;5002310;28;19921;-88
2022/09/02 12:25:23;;;;;;;4.53;0.80;;;30.40;58.00;;;;;;4996000;28;20049;-88
2022/09/02 12:27:50;;;;;;;1.27;0.55;;;30.30;55.30;;;;;;4961776;28;20055;-87
2022/09/02 12:30:54;;;;;;;2.88;0.70;;;30.50;58.30;;;;;;4994333;28;20053;-87
2022/09/02 12:33:38;;;;;;;1.42;0.50;;;30.80;56.50;;;;;;4986045;28;20054;-89
2022/09/02 12:36:05;;;;;;;1.38;0.70;;;31.20;56.50;;;;;;4966035;28;20077;-88
2022/09/02 12:38:41;;;;;;;1.45;0.50;;;32.30;57.50;;;;;;4980413;28;20537;-88
2022/09/02 12:41:44;;;;;;;1.95;0.70;;;31.50;55.30;;;;;;4998673;28;20077;-88
2022/09/02 12:44:49;;;;;;;5.28;0.82;;;31.50;54.10;;;;;;4969833;28;20058;-87
2022/09/02 12:47:58;;;;;;;2.05;0.60;;;31.50;55.10;;;;;;4972329;28;20038;-88
2022/09/02 12:50:27;;;;;;;3.10;0.85;;;31.40;55.20;;;;;;4969771;28;20074;-88
2022/09/02 12:53:57;;;;;;;2.35;0.65;;;31.40;55.50;;;;;;4975174;28;20660;-87
2022/09/02 12:56:26;;;;;;;1.60;0.60;;;31.50;54.80;;;;;;4917180;28;20072;-89
2022/09/02 12:58:53;;;;;;;1.80;0.80;;;31.50;54.90;;;;;;4952400;28;20048;-86
2022/09/02 13:01:47;;;;;;;1.77;0.60;;;31.40;54.60;;;;;;4977179;28;20176;-86
2022/09/02 13:04:45;;;;;;;1.77;0.80;;;31.50;53.10;;;;;;4988311;28;20085;-89
2022/09/02 13:07:48;;;;;;;2.00;0.80;;;31.60;53.00;;;;;;4970759;28;20112;-87
2022/09/02 13:10:32;;;;;;;1.85;0.68;;;31.50;53.10;;;;;;4982904;28;20089;-88
2022/09/02 13:13:30;;;;;;;2.13;0.70;;;31.50;53.50;;;;;;4976259;28;20053;-87
2022/09/02 13:16:46;;;;;;;3.80;1.00;;;31.40;53.20;;;;;;4991899;28;20126;-87
2022/09/02 13:19:31;;;;;;;1.92;0.73;;;31.00;53.50;;;;;;4973776;28;20116;-87
2022/09/02 13:22:29;;;;;;;;;;;;;;;;;;;;;